Time;durP1;ratioP1;P1;durP2;ratioP2;P2;SDS_P1;SDS_P2;PMS_P1;PMS_P2;Temp;Humidity;BMP_temperature;BMP_pressure;BME280_temperature;BME280_humidity;BME280_pressure;Samples;Min_cycle;Max_cycle;Signal;HPM_P1;HPM_P2
2021/09/21 00:00:52;;;;;;;;;;;;;;;8.64;88.02;98741.80;1749339;80;20137;-82
2021/09/21 00:03:19;;;;;;;;;;;;;;;8.58;87.90;98737.39;1749473;80;20188;-82
2021/09/21 00:05:45;;;;;;;;;;;;;;;8.52;87.92;98743.24;1777670;80;20137;-82
2021/09/21 00:08:12;;;;;;;;;;;;;;;8.47;87.66;98744.53;1778221;80;20475;-82
2021/09/21 00:10:39;;;;;;;;;;;;;;;8.36;87.87;98743.55;1777657;80;21030;-82
2021/09/21 00:13:06;;;;;;;;;;;;;;;8.32;88.12;98746.44;1749428;80;20171;-82
2021/09/21 00:15:33;;;;;;;;;;;;;;;8.25;90.24;98745.79;1777589;80;20161;-82
2021/09/21 00:18:00;;;;;;;;;;;;;;;8.22;88.54;98746.83;1777865;80;20192;-82
2021/09/21 00:20:26;;;;;;;;;;;;;;;8.14;88.33;98746.70;1769962;80;20153;-82
2021/09/21 00:22:53;;;;;;;;;;;;;;;8.06;90.41;98752.52;1769888;81;21044;-82
2021/09/21 00:25:20;;;;;;;;;;;;;;;8.00;88.80;98752.95;1769578;81;20077;-82
2021/09/21 00:27:47;;;;;;;;;;;;;;;7.86;88.17;98744.88;1770038;81;20499;-82
2021/09/21 00:30:15;;;;;;;;;;;;;;;7.72;88.76;98746.27;1769669;81;20404;-82
2021/09/21 00:32:44;;;;;;;;;;;;;;;7.58;90.82;98747.91;1769910;81;20145;-82
2021/09/21 00:35:11;;;;;;;;;;;;;;;7.52;89.67;98749.41;1769616;81;20941;-82
2021/09/21 00:37:38;;;;;;;;;;;;;;;7.43;89.15;98750.33;1769835;81;20180;-82
2021/09/21 00:40:05;;;;;;;;;;;;;;;7.34;88.96;98751.77;1769908;81;20240;-82
2021/09/21 00:42:32;;;;;;;;;;;;;;;7.22;90.18;98746.97;1769913;81;20620;-82
2021/09/21 00:45:02;;;;;;;;;;;;;;;7.14;88.74;98748.17;1769628;81;20422;-82
2021/09/21 00:47:29;;;;;;;;;;;;;;;7.01;91.77;98741.19;1769682;81;21178;-82
2021/09/21 00:49:56;;;;;;;;;;;;;;;7.01;91.84;98748.45;1747505;81;20157;-82
2021/09/21 00:52:23;;;;;;;;;;;;;;;7.01;89.66;98747.11;1752280;81;20502;-82
2021/09/21 00:54:50;;;;;;;;;;;;;;;6.95;92.22;98744.83;1769637;81;20712;-82
2021/09/21 00:57:17;;;;;;;;;;;;;;;6.98;92.25;98744.34;1770099;81;20191;-82
2021/09/21 00:59:43;;;;;;;;;;;;;;;6.95;92.11;98742.67;1769717;81;21032;-82
2021/09/21 01:02:10;;;;;;;;;;;;;;;7.01;92.46;98749.80;1769928;81;20200;-82
2021/09/21 01:04:37;;;;;;;;;;;;;;;7.00;92.46;98748.14;1752638;81;20409;-82
2021/09/21 01:07:04;;;;;;;;;;;;;;;7.00;90.71;98752.19;1770115;81;20589;-82
2021/09/21 01:09:31;;;;;;;;;;;;;;;6.92;91.66;98753.41;1769692;81;20400;-82
2021/09/21 01:11:58;;;;;;;;;;;;;;;6.93;90.71;98759.61;1769961;81;21634;-82
2021/09/21 01:14:26;;;;;;;;;;;;;;;6.82;93.00;98762.59;1769684;81;20169;-82
2021/09/21 01:16:53;;;;;;;;;;;;;;;6.83;92.44;98758.84;1769911;81;20209;-82
2021/09/21 01:19:20;;;;;;;;;;;;;;;6.88;92.07;98762.19;1752666;80;20853;-82
2021/09/21 01:21:47;;;;;;;;;;;;;;;6.89;90.85;98767.33;1749742;80;20456;-82
2021/09/21 01:24:15;;;;;;;;;;;;;;;6.78;90.48;98769.00;1777623;80;21707;-82
2021/09/21 01:26:41;;;;;;;;;;;;;;;6.66;90.07;98765.48;1777693;80;20188;-82
2021/09/21 01:29:08;;;;;;;;;;;;;;;6.55;90.25;98766.32;1749491;80;20397;-83
2021/09/21 01:31:35;;;;;;;;;;;;;;;6.48;90.77;98769.66;1777954;80;20447;-82
2021/09/21 01:34:02;;;;;;;;;;;;;;;6.46;92.14;98769.90;1749216;80;20241;-83
2021/09/21 01:36:29;;;;;;;;;;;;;;;6.45;91.17;98764.23;1749486;80;21696;-82
2021/09/21 01:38:56;;;;;;;;;;;;;;;6.36;93.53;98762.12;1777520;80;20164;-82
2021/09/21 01:41:23;;;;;;;;;;;;;;;6.35;93.38;98764.00;1777776;80;20157;-82
2021/09/21 01:43:50;;;;;;;;;;;;;;;6.35;92.39;98763.18;1724871;80;20250;-82
2021/09/21 01:46:19;;;;;;;;;;;;;;;6.32;92.37;98755.02;1777768;80;20165;-83
2021/09/21 01:48:46;;;;;;;;;;;;;;;6.27;92.91;98755.45;1749406;80;21012;-83
2021/09/21 01:51:17;;;;;;;;;;;;;;;6.25;92.58;98756.22;1777819;80;20246;-82
2021/09/21 01:59:06;;;;;;;;;;;;;;;6.17;92.82;98755.52;1777817;80;20137;-82
2021/09/21 02:01:33;;;;;;;;;;;;;;;6.16;93.37;98759.26;1777863;80;21175;-82
2021/09/21 02:04:05;;;;;;;;;;;;;;;6.16;93.96;98755.75;1777712;80;20164;-82
2021/09/21 02:06:37;;;;;;;;;;;;;;;6.16;92.80;98753.06;1777284;80;20247;-82
2021/09/21 02:09:05;;;;;;;;;;;;;;;6.15;92.08;98754.09;1751445;80;20409;-82
2021/09/21 02:11:32;;;;;;;;;;;;;;;6.10;93.09;98757.48;1777863;80;20169;-82
2021/09/21 02:14:00;;;;;;;;;;;;;;;6.09;92.33;98755.04;1777828;80;20986;-82
2021/09/21 02:16:28;;;;;;;;;;;;;;;6.14;92.85;98759.17;1749710;80;20896;-83
2021/09/21 02:18:55;;;;;;;;;;;;;;;6.10;92.59;98756.14;1777280;80;20137;-83
2021/09/21 02:21:22;;;;;;;;;;;;;;;6.07;92.42;98760.66;1770203;81;20574;-83
2021/09/21 02:23:50;;;;;;;;;;;;;;;6.04;93.25;98758.94;1770150;81;20142;-83
2021/09/21 02:26:17;;;;;;;;;;;;;;;6.06;91.94;98758.17;1769646;81;21775;-82
2021/09/21 02:28:43;;;;;;;;;;;;;;;5.96;93.02;98755.24;1769798;81;20220;-82
2021/09/21 02:31:10;;;;;;;;;;;;;;;5.90;94.82;98760.52;1769986;81;20228;-82
2021/09/21 02:33:37;;;;;;;;;;;;;;;5.96;94.77;98756.59;1769977;81;20195;-83
2021/09/21 02:36:05;;;;;;;;;;;;;;;5.96;94.81;98761.44;1742114;81;20142;-82
2021/09/21 02:38:33;;;;;;;;;;;;;;;5.96;94.63;98764.66;1769933;81;21073;-82
2021/09/21 02:41:00;;;;;;;;;;;;;;;5.92;95.33;98768.35;1769717;81;20125;-83
2021/09/21 02:43:27;;;;;;;;;;;;;;;5.86;95.16;98767.36;1770399;81;20187;-83
2021/09/21 02:45:55;;;;;;;;;;;;;;;5.84;95.15;98772.69;1769623;81;20261;-83
2021/09/21 02:48:22;;;;;;;;;;;;;;;5.83;93.85;98775.91;1770358;81;20137;-83
2021/09/21 02:50:49;;;;;;;;;;;;;;;5.72;93.41;98780.70;1769746;81;21611;-83
2021/09/21 02:53:17;;;;;;;;;;;;;;;5.64;93.95;98773.81;1769922;81;20215;-83
2021/09/21 02:55:44;;;;;;;;;;;;;;;5.55;94.23;98775.69;1752246;81;20168;-83
2021/09/21 02:58:12;;;;;;;;;;;;;;;5.55;93.68;98779.72;1769938;81;20202;-82
2021/09/21 03:00:39;;;;;;;;;;;;;;;5.48;93.06;98779.02;1769766;81;20125;-82
2021/09/21 03:03:06;;;;;;;;;;;;;;;5.44;94.17;98782.66;1769986;81;21170;-83
2021/09/21 03:05:40;;;;;;;;;;;;;;;5.42;92.93;98781.27;1747371;81;20630;-82
2021/09/21 03:08:07;;;;;;;;;;;;;;;5.32;93.40;98778.59;1769250;80;20212;-82
2021/09/21 03:13:21;;;;;;;;;;;;;;;5.34;93.69;98787.77;1770015;81;20148;-82
2021/09/21 03:18:26;;;;;;;;;;;;;;;5.32;93.07;98786.66;1769799;81;20427;-82
2021/09/21 03:20:53;;;;;;;;;;;;;;;5.28;95.41;98792.17;1751343;81;20133;-83
2021/09/21 03:23:20;;;;;;;;;;;;;;;5.32;95.39;98792.03;1746654;81;20569;-83
2021/09/21 03:25:47;;;;;;;;;;;;;;;5.37;96.75;98792.16;1746258;82;20133;-83
2021/09/21 03:28:14;;;;;;;;;;;;;;;5.43;95.09;98798.50;1719499;82;20856;-83
2021/09/21 03:30:41;;;;;;;;;;;;;;;5.49;95.96;98812.39;1746164;81;20145;-82
2021/09/21 03:33:08;;;;;;;;;;;;;;;5.51;95.79;98813.50;1746529;81;20188;-82
2021/09/21 03:35:35;;;;;;;;;;;;;;;5.59;95.38;98819.37;1746191;81;20220;-83
2021/09/21 03:38:02;;;;;;;;;;;;;;;5.54;94.86;98821.91;1746501;82;20204;-83
2021/09/21 03:40:28;;;;;;;;;;;;;;;5.60;94.75;98823.70;1718881;82;22696;-83
2021/09/21 03:42:55;;;;;;;;;;;;;;;5.64;95.79;98821.39;1746574;81;20136;-83
2021/09/21 03:45:24;;;;;;;;;;;;;;;5.72;95.45;98820.22;1746243;81;20137;-83
2021/09/21 03:47:51;;;;;;;;;;;;;;;5.82;95.35;98831.27;1746451;82;20133;-82
2021/09/21 03:50:17;;;;;;;;;;;;;;;5.85;94.90;98838.88;1746296;81;20141;-83
2021/09/21 03:52:44;;;;;;;;;;;;;;;5.92;95.02;98836.95;1712211;82;21106;-83
2021/09/21 03:55:11;;;;;;;;;;;;;;;5.89;94.80;98846.77;1746207;81;20156;-83
2021/09/21 03:57:38;;;;;;;;;;;;;;;5.96;95.12;98850.22;1746594;81;20204;-82
2021/09/21 04:00:06;;;;;;;;;;;;;;;6.04;94.82;98845.04;1746645;81;20192;-82
2021/09/21 04:02:33;;;;;;;;;;;;;;;6.05;94.11;98842.11;1746804;81;20157;-82
2021/09/21 04:05:00;;;;;;;;;;;;;;;6.08;94.44;98832.25;1746401;82;20977;-82
2021/09/21 04:07:26;;;;;;;;;;;;;;;6.09;93.31;98835.23;1746293;81;20211;-82
2021/09/21 04:09:53;;;;;;;;;;;;;;;6.06;93.57;98834.86;1746444;81;20141;-82
2021/09/21 04:12:20;;;;;;;;;;;;;;;6.04;93.54;98835.09;1747109;81;20228;-82
2021/09/21 04:14:47;;;;;;;;;;;;;;;6.04;93.31;98835.63;1746443;82;20113;-82
2021/09/21 04:17:13;;;;;;;;;;;;;;;6.00;93.59;98833.92;1746999;81;20982;-82
2021/09/21 04:19:40;;;;;;;;;;;;;;;6.06;93.89;98832.16;1743971;80;20150;-82
2021/09/21 04:22:07;;;;;;;;;;;;;;;6.06;93.43;98829.48;1733186;83;20138;-82
2021/09/21 04:24:35;;;;;;;;;;;;;;;6.02;94.14;98831.00;1733006;82;20205;-82
2021/09/21 04:27:03;;;;;;;;;;;;;;;6.08;93.92;98827.40;1733266;83;20177;-83
2021/09/21 04:29:30;;;;;;;;;;;;;;;6.11;92.98;98827.74;1732806;83;20527;-83
2021/09/21 04:32:00;;;;;;;;;;;;;;;6.09;92.96;98825.00;1713439;83;20125;-82
2021/09/21 04:34:26;;;;;;;;;;;;;;;6.09;92.38;98828.51;1732663;82;20138;-83
2021/09/21 04:36:52;;;;;;;;;;;;;;;6.12;92.86;98826.69;1732928;82;20205;-82
2021/09/21 04:39:19;;;;;;;;;;;;;;;6.14;91.89;98827.80;1732834;82;20153;-83
2021/09/21 04:41:46;;;;;;;;;;;;;;;6.10;92.17;98827.98;1733055;82;20994;-83
2021/09/21 04:44:13;;;;;;;;;;;;;;;6.14;92.13;98829.14;1732830;82;20134;-83
2021/09/21 04:46:40;;;;;;;;;;;;;;;6.20;92.66;98837.13;1732718;83;20151;-83
2021/09/21 04:49:08;;;;;;;;;;;;;;;6.26;91.89;98835.91;1732891;83;20437;-83
2021/09/21 04:51:35;;;;;;;;;;;;;;;6.22;91.70;98841.73;1732886;82;20197;-82
2021/09/21 04:54:02;;;;;;;;;;;;;;;6.24;91.69;98840.19;1732893;82;20966;-82
2021/09/21 04:56:28;;;;;;;;;;;;;;;6.22;92.28;98829.63;1732553;82;20142;-83
2021/09/21 04:58:55;;;;;;;;;;;;;;;6.39;92.53;98838.38;1732891;82;20140;-82
2021/09/21 05:01:22;;;;;;;;;;;;;;;6.47;92.42;98831.30;1732918;83;20138;-82
2021/09/21 05:03:49;;;;;;;;;;;;;;;6.55;92.07;98832.83;1733013;82;20146;-83
2021/09/21 05:06:15;;;;;;;;;;;;;;;6.64;91.38;98836.80;1732731;82;20972;-83
2021/09/21 05:08:43;;;;;;;;;;;;;;;6.65;91.29;98841.95;1733116;82;20333;-83
2021/09/21 05:11:10;;;;;;;;;;;;;;;6.70;91.12;98842.08;1732632;82;20491;-82
2021/09/21 05:13:37;;;;;;;;;;;;;;;6.73;91.38;98854.25;1732926;82;20472;-82
2021/09/21 05:16:04;;;;;;;;;;;;;;;6.82;90.98;98848.80;1732570;83;20412;-82
2021/09/21 05:18:32;;;;;;;;;;;;;;;6.87;90.77;98852.15;1732887;83;21018;-82
2021/09/21 05:20:59;;;;;;;;;;;;;;;6.93;91.22;98850.69;1732467;80;20138;-82
2021/09/21 05:23:26;;;;;;;;;;;;;;;7.07;91.56;98856.09;1732887;82;20169;-83
2021/09/21 05:25:53;;;;;;;;;;;;;;;7.12;90.45;98859.98;1732639;82;20138;-83
2021/09/21 05:28:19;;;;;;;;;;;;;;;7.00;90.56;98863.48;1732864;82;20237;-83
2021/09/21 05:30:46;;;;;;;;;;;;;;;6.92;91.05;98871.95;1732586;82;20979;-83
2021/09/21 05:33:13;;;;;;;;;;;;;;;6.96;90.98;98867.72;1732899;82;20220;-83
2021/09/21 05:35:40;;;;;;;;;;;;;;;6.98;90.50;98872.87;1732564;83;20442;-84
2021/09/21 05:38:07;;;;;;;;;;;;;;;6.92;91.03;98878.69;1713445;83;20685;-83
2021/09/21 05:40:34;;;;;;;;;;;;;;;7.00;90.50;98888.27;1732817;83;20133;-83
2021/09/21 05:43:00;;;;;;;;;;;;;;;7.03;90.53;98889.16;1713791;83;20988;-85
2021/09/21 05:45:27;;;;;;;;;;;;;;;7.04;90.50;98897.00;1732528;82;20130;-84
2021/09/21 05:47:54;;;;;;;;;;;;;;;7.04;90.71;98892.15;1732953;83;20244;-83
2021/09/21 05:50:22;;;;;;;;;;;;;;;7.05;91.35;98895.95;1732587;83;20142;-84
2021/09/21 05:52:49;;;;;;;;;;;;;;;7.20;91.18;98895.47;1733091;83;20142;-83
2021/09/21 05:55:16;;;;;;;;;;;;;;;7.25;90.27;98898.80;1732664;82;20989;-84
2021/09/21 05:57:44;;;;;;;;;;;;;;;7.17;89.85;98902.67;1732906;83;20488;-84
2021/09/21 06:00:11;;;;;;;;;;;;;;;7.21;90.38;98902.50;1732629;82;20134;-83
2021/09/21 06:02:39;;;;;;;;;;;;;;;7.32;90.87;98901.66;1732965;82;20460;-83
2021/09/21 06:05:06;;;;;;;;;;;;;;;7.50;90.69;98899.86;1713205;83;20162;-82
2021/09/21 06:07:34;;;;;;;;;;;;;;;7.60;90.27;98897.36;1732754;82;20977;-82
2021/09/21 06:10:01;;;;;;;;;;;;;;;7.66;89.62;98900.47;1713265;83;20424;-82
2021/09/21 06:12:28;;;;;;;;;;;;;;;7.75;90.23;98899.03;1713428;83;20465;-83
2021/09/21 06:14:55;;;;;;;;;;;;;;;7.92;90.11;98899.90;1713643;83;20173;-83
2021/09/21 06:17:22;;;;;;;;;;;;;;;8.01;89.24;98903.56;1713957;83;20539;-84
2021/09/21 06:19:49;;;;;;;;;;;;;;;8.11;89.24;98897.00;1732699;83;21527;-84
2021/09/21 06:22:16;;;;;;;;;;;;;;;8.14;88.75;98897.34;1773730;81;20209;-84
2021/09/21 06:24:42;;;;;;;;;;;;;;;8.21;88.51;98901.25;1757381;81;20432;-84
2021/09/21 06:27:09;;;;;;;;;;;;;;;8.26;88.63;98903.21;1774677;80;20425;-84
2021/09/21 06:29:36;;;;;;;;;;;;;;;8.37;88.81;98902.34;1774683;80;20145;-84
2021/09/21 06:32:03;;;;;;;;;;;;;;;8.52;88.86;98907.20;1774763;81;20851;-84
2021/09/21 06:34:30;;;;;;;;;;;;;;;8.61;88.30;98902.49;1774597;81;20401;-83
2021/09/21 06:36:57;;;;;;;;;;;;;;;8.73;88.41;98903.25;1774427;81;20168;-84
2021/09/21 06:39:24;;;;;;;;;;;;;;;8.78;86.84;98909.78;1723570;81;20405;-84
2021/09/21 06:41:51;;;;;;;;;;;;;;;8.95;87.67;98910.59;1774714;80;20432;-84
2021/09/21 06:44:17;;;;;;;;;;;;;;;9.13;88.07;98907.61;1774813;80;21500;-84
2021/09/21 06:46:44;;;;;;;;;;;;;;;9.36;86.83;98910.64;1756991;81;20164;-84
2021/09/21 06:49:11;;;;;;;;;;;;;;;9.57;87.30;98904.95;1772140;80;20158;-83
2021/09/21 06:51:38;;;;;;;;;;;;;;;9.55;86.30;98916.56;1772934;80;20412;-82
2021/09/21 06:54:05;;;;;;;;;;;;;;;9.59;84.85;98917.72;1773148;80;20137;-84
2021/09/21 06:56:32;;;;;;;;;;;;;;;9.74;85.62;98915.71;1772429;81;20945;-83
2021/09/21 06:58:58;;;;;;;;;;;;;;;10.16;81.71;98919.98;1773076;81;20204;-84
2021/09/21 07:01:28;;;;;;;;;;;;;;;10.30;81.26;98918.55;1755779;81;20188;-84
2021/09/21 07:03:54;;;;;;;;;;;;;;;11.14;83.68;98912.45;1773527;80;20400;-81
2021/09/21 07:06:21;;;;;;;;;;;;;;;10.97;83.04;98910.44;1773104;81;20136;-80
2021/09/21 07:08:48;;;;;;;;;;;;;;;11.07;80.31;98919.18;1773141;81;21192;-81
2021/09/21 07:11:14;;;;;;;;;;;;;;;11.04;81.54;98916.46;1772941;80;20196;-82
2021/09/21 07:13:41;;;;;;;;;;;;;;;11.38;79.80;98908.80;1773358;81;20200;-83
2021/09/21 07:16:08;;;;;;;;;;;;;;;11.63;79.87;98918.97;1755507;81;20157;-82
2021/09/21 07:18:35;;;;;;;;;;;;;;;12.01;80.95;98910.98;1773535;81;20167;-82
2021/09/21 07:21:02;;;;;;;;;;;;;;;12.66;76.38;98916.81;1769624;80;20986;-82
2021/09/21 07:23:29;;;;;;;;;;;;;;;13.30;75.77;98921.68;1763486;81;20173;-80
2021/09/21 07:25:55;;;;;;;;;;;;;;;14.30;76.39;98917.46;1763038;81;20145;-82
2021/09/21 07:28:22;;;;;;;;;;;;;;;15.22;74.22;98910.75;1763560;81;20359;-80
2021/09/21 07:30:49;;;;;;;;;;;;;;;15.58;71.67;98913.66;1763201;81;20169;-82
2021/09/21 07:33:16;;;;;;;;;;;;;;;16.27;70.34;98910.89;1737965;81;20992;-80
2021/09/21 07:35:43;;;;;;;;;;;;;;;16.71;64.43;98905.60;1763136;81;20363;-80
2021/09/21 07:38:10;;;;;;;;;;;;;;;17.36;62.76;98911.87;1763544;81;20205;-82
2021/09/21 07:40:37;;;;;;;;;;;;;;;17.76;66.70;98911.64;1737587;81;21286;-81
2021/09/21 07:43:05;;;;;;;;;;;;;;;18.40;63.76;98908.91;1763695;81;20641;-82
2021/09/21 07:45:33;;;;;;;;;;;;;;;18.42;64.35;98912.72;1737938;81;21720;-81
2021/09/21 07:48:00;;;;;;;;;;;;;;;17.79;60.15;98921.77;1763427;81;20177;-82
2021/09/21 07:50:27;;;;;;;;;;;;;;;17.65;63.30;98919.80;1763262;81;20134;-80
2021/09/21 07:52:54;;;;;;;;;;;;;;;17.24;57.92;98918.93;1763528;81;20201;-80
2021/09/21 07:55:21;;;;;;;;;;;;;;;17.29;59.99;98916.92;1738282;81;20405;-80
2021/09/21 07:57:48;;;;;;;;;;;;;;;16.84;62.92;98916.61;1763567;81;21015;-82
2021/09/21 08:00:17;;;;;;;;;;;;;;;16.89;59.74;98919.80;1763449;81;20220;-82
2021/09/21 08:02:44;;;;;;;;;;;;;;;16.78;61.89;98925.20;1763170;81;20476;-80
2021/09/21 08:05:11;;;;;;;;;;;;;;;16.45;58.63;98927.03;1763293;81;20430;-81
2021/09/21 08:07:38;;;;;;;;;;;;;;;15.38;61.03;98926.44;1763413;81;21906;-82
2021/09/21 08:10:05;;;;;;;;;;;;;;;14.28;63.04;98929.75;1763341;81;20993;-80
2021/09/21 08:12:32;;;;;;;;;;;;;;;13.97;65.24;98935.90;1763315;81;20142;-81
2021/09/21 08:14:59;;;;;;;;;;;;;;;13.67;64.61;98932.22;1763337;81;20137;-80
2021/09/21 08:17:27;;;;;;;;;;;;;;;13.65;64.49;98925.39;1763319;81;20125;-80
2021/09/21 08:19:55;;;;;;;;;;;;;;;13.46;65.25;98934.16;1763372;81;20461;-82
2021/09/21 08:22:22;;;;;;;;;;;;;;;13.32;64.64;98935.82;1771118;81;21013;-81
2021/09/21 08:24:49;;;;;;;;;;;;;;;13.20;64.41;98938.03;1773117;80;20129;-81
2021/09/21 08:27:15;;;;;;;;;;;;;;;12.89;62.09;98937.20;1773060;81;20424;-80
2021/09/21 08:29:42;;;;;;;;;;;;;;;12.84;62.77;98936.67;1755828;81;20416;-81
2021/09/21 08:32:09;;;;;;;;;;;;;;;13.61;61.58;98944.20;1773107;81;20409;-81
2021/09/21 08:34:36;;;;;;;;;;;;;;;13.52;62.93;98940.42;1773011;81;20915;-80
2021/09/21 08:37:04;;;;;;;;;;;;;;;13.53;62.07;98938.78;1773048;80;20196;-80
2021/09/21 08:39:31;;;;;;;;;;;;;;;13.90;63.52;98949.00;1773174;80;20155;-81
2021/09/21 08:41:58;;;;;;;;;;;;;;;13.86;63.31;98942.50;1773189;80;20133;-82
2021/09/21 08:44:25;;;;;;;;;;;;;;;13.94;63.41;98943.28;1773259;81;20176;-80
2021/09/21 08:46:52;;;;;;;;;;;;;;;14.02;63.68;98933.98;1755643;81;21190;-83
2021/09/21 08:49:19;;;;;;;;;;;;;;;14.44;61.91;98938.11;1773117;80;20144;-80
2021/09/21 08:51:45;;;;;;;;;;;;;;;14.71;62.97;98933.59;1773128;81;20424;-80
2021/09/21 08:54:12;;;;;;;;;;;;;;;15.05;63.15;98936.30;1773198;80;20396;-80
2021/09/21 08:56:40;;;;;;;;;;;;;;;15.09;61.71;98929.16;1773199;81;20404;-80
2021/09/21 08:59:11;;;;;;;;;;;;;;;14.82;60.18;98926.94;1755914;81;20471;-83
2021/09/21 09:01:39;;;;;;;;;;;;;;;14.56;58.83;98930.96;1773002;80;20177;-83
2021/09/21 09:04:06;;;;;;;;;;;;;;;14.45;60.96;98937.04;1747357;81;20125;-81
2021/09/21 09:06:49;;;;;;;;;;;;;;;14.56;57.84;98937.78;1773201;80;20125;-81
2021/09/21 09:09:17;;;;;;;;;;;;;;;14.53;58.26;98939.17;1773210;80;20432;-84
2021/09/21 09:11:49;;;;;;;;;;;;;;;14.36;56.92;98942.24;1773077;80;20933;-83
2021/09/21 09:14:25;;;;;;;;;;;;;;;14.62;59.89;98952.47;1749391;82;20131;-81
2021/09/21 09:17:04;;;;;;;;;;;;;;;14.59;57.15;98946.75;1720423;83;20157;-83
2021/09/21 09:19:35;;;;;;;;;;;;;;;14.32;55.04;98942.52;1708525;83;20158;-80
2021/09/21 09:22:13;;;;;;;;;;;;;;;14.41;60.08;98946.83;1723319;83;20134;-83
2021/09/21 09:24:57;;;;;;;;;;;;;;;14.44;58.76;98943.56;1717547;83;21810;-83
2021/09/21 09:27:46;;;;;;;;;;;;;;;14.08;55.08;98941.56;1717596;83;20134;-83
2021/09/21 09:30:15;;;;;;;;;;;;;;;14.34;59.25;98943.59;1691858;83;20487;-82
2021/09/21 09:32:46;;;;;;;;;;;;;;;14.28;56.83;98942.02;1717468;83;20138;-82
2021/09/21 09:35:24;;;;;;;;;;;;;;;14.28;57.12;98940.11;1691328;83;20164;-80
2021/09/21 09:37:51;;;;;;;;;;;;;;;14.03;55.76;98941.05;1691634;83;21169;-80
2021/09/21 09:40:18;;;;;;;;;;;;;;;14.00;56.38;98946.23;1717607;83;20442;-81
2021/09/21 09:42:45;;;;;;;;;;;;;;;14.09;57.94;98937.73;1717503;83;20209;-82
2021/09/21 09:45:12;;;;;;;;;;;;;;;14.27;58.39;98936.27;1717568;83;20105;-80
2021/09/21 09:47:48;;;;;;;;;;;;;;;14.18;57.13;98943.41;1718015;83;20145;-81
2021/09/21 09:50:16;;;;;;;;;;;;;;;13.81;56.39;98950.13;1716658;83;20708;-82
2021/09/21 09:52:43;;;;;;;;;;;;;;;13.96;58.36;98941.90;1717457;83;20126;-82
2021/09/21 09:55:10;;;;;;;;;;;;;;;13.87;57.92;98945.48;1717667;83;20134;-80
2021/09/21 09:57:39;;;;;;;;;;;;;;;13.93;56.58;98937.53;1717498;83;20416;-80
2021/09/21 10:00:07;;;;;;;;;;;;;;;14.09;57.86;98931.73;1718157;83;20104;-83
2021/09/21 10:02:34;;;;;;;;;;;;;;;14.15;56.77;98925.72;1717566;83;20918;-77
2021/09/21 10:05:02;;;;;;;;;;;;;;;14.15;55.32;98933.90;1691228;83;20138;-83
2021/09/21 10:07:29;;;;;;;;;;;;;;;14.20;58.48;98944.78;1717935;83;20141;-76
2021/09/21 10:09:55;;;;;;;;;;;;;;;14.23;55.33;98937.95;1691322;83;20417;-77
2021/09/21 10:12:22;;;;;;;;;;;;;;;14.10;54.36;98940.20;1717671;83;20405;-82
2021/09/21 10:14:49;;;;;;;;;;;;;;;14.02;55.63;98935.89;1717588;83;21462;-76
2021/09/21 10:17:22;;;;;;;;;;;;;;;14.10;56.58;98948.94;1717675;83;20138;-84
2021/09/21 10:19:55;;;;;;;;;;;;;;;13.72;56.46;98943.63;1718180;83;20153;-83
2021/09/21 10:22:27;;;;;;;;;;;;;;;13.62;57.12;98947.75;1717642;83;20206;-77
2021/09/21 10:24:53;;;;;;;;;;;;;;;13.57;57.34;98940.94;1718137;83;20137;-83
2021/09/21 10:27:23;;;;;;;;;;;;;;;13.64;57.19;98938.20;1717639;83;21018;-76
2021/09/21 10:29:58;;;;;;;;;;;;;;;13.73;55.93;98948.79;1717531;83;20402;-83
2021/09/21 10:32:25;;;;;;;;;;;;;;;13.88;57.59;98949.29;1717102;83;20180;-80
2021/09/21 10:34:52;;;;;;;;;;;;;;;13.86;54.74;98943.31;1717581;83;20703;-80
2021/09/21 10:37:20;;;;;;;;;;;;;;;13.56;55.28;98946.94;1717652;83;20138;-81
2021/09/21 10:39:47;;;;;;;;;;;;;;;13.41;56.43;98949.69;1691445;83;21877;-81
2021/09/21 10:42:18;;;;;;;;;;;;;;;13.52;57.45;98954.85;1687498;83;20256;-80
2021/09/21 10:44:50;;;;;;;;;;;;;;;13.52;55.70;98956.22;1716663;83;20196;-80
2021/09/21 10:47:27;;;;;;;;;;;;;;;13.53;55.97;98948.31;1716824;83;20149;-81
2021/09/21 10:49:57;;;;;;;;;;;;;;;13.87;57.28;98956.37;1717675;83;20177;-81
2021/09/21 10:52:27;;;;;;;;;;;;;;;14.02;56.25;98945.42;1688220;83;20884;-81
2021/09/21 10:54:56;;;;;;;;;;;;;;;14.03;57.04;98941.60;1717545;83;20405;-80
2021/09/21 10:57:29;;;;;;;;;;;;;;;13.66;56.23;98940.09;1691551;83;20165;-81
2021/09/21 10:59:58;;;;;;;;;;;;;;;13.75;56.87;98944.42;1691018;83;20469;-81
2021/09/21 11:02:31;;;;;;;;;;;;;;;13.76;55.24;98940.63;1691191;83;20164;-81
2021/09/21 11:04:59;;;;;;;;;;;;;;;13.77;55.53;98938.17;1717476;83;21690;-81
2021/09/21 11:07:25;;;;;;;;;;;;;;;13.75;56.47;98941.70;1717501;83;20130;-80
2021/09/21 11:09:54;;;;;;;;;;;;;;;13.85;58.12;98932.14;1717532;83;20150;-81
2021/09/21 11:12:22;;;;;;;;;;;;;;;13.97;57.92;98931.81;1717652;83;20134;-81
2021/09/21 11:14:52;;;;;;;;;;;;;;;14.18;55.80;98921.06;1717680;83;20417;-81
2021/09/21 11:17:23;;;;;;;;;;;;;;;14.27;55.61;98922.64;1717675;83;20943;-81
2021/09/21 11:19:53;;;;;;;;;;;;;;;14.62;56.04;98922.47;1717737;83;20165;-81
2021/09/21 11:22:27;;;;;;;;;;;;;;;14.90;54.95;98916.78;1718740;83;20130;-80
2021/09/21 11:25:08;;;;;;;;;;;;;;;15.15;56.72;98919.02;1768186;80;20134;-81
2021/09/21 11:27:36;;;;;;;;;;;;;;;15.39;55.06;98914.95;1768287;81;20200;-81
2021/09/21 11:30:09;;;;;;;;;;;;;;;15.62;53.06;98906.52;1768211;81;21680;-81
2021/09/21 11:32:36;;;;;;;;;;;;;;;15.49;52.52;98911.56;1768484;81;20159;-81
2021/09/21 11:35:08;;;;;;;;;;;;;;;15.58;51.33;98913.66;1750707;81;20129;-81
2021/09/21 11:37:36;;;;;;;;;;;;;;;15.26;50.71;98911.53;1768499;81;20149;-81
2021/09/21 11:40:04;;;;;;;;;;;;;;;14.95;52.04;98912.66;1750305;81;20134;-81
2021/09/21 11:42:33;;;;;;;;;;;;;;;14.76;54.55;98910.89;1768237;81;20950;-81
2021/09/21 11:45:01;;;;;;;;;;;;;;;14.48;55.78;98913.28;1750980;81;20417;-81
2021/09/21 11:47:39;;;;;;;;;;;;;;;14.42;56.78;98917.66;1768283;81;20141;-80
2021/09/21 11:50:25;;;;;;;;;;;;;;;14.39;56.96;98923.95;1768235;81;20168;-81
2021/09/21 11:53:03;;;;;;;;;;;;;;;14.31;57.31;98919.09;1768277;81;20109;-82
2021/09/21 11:55:31;;;;;;;;;;;;;;;14.26;57.36;98924.56;1768161;81;20945;-82
2021/09/21 11:57:58;;;;;;;;;;;;;;;14.23;57.30;98928.41;1768177;81;20137;-82
2021/09/21 12:00:31;;;;;;;;;;;;;;;14.16;56.93;98920.53;1768278;81;20212;-82
2021/09/21 12:03:15;;;;;;;;;;;;;;;14.29;58.24;98913.66;1768276;81;20424;-82
2021/09/21 12:05:43;;;;;;;;;;;;;;;14.49;57.49;98916.83;1709788;81;20157;-82
2021/09/21 12:08:16;;;;;;;;;;;;;;;14.52;58.19;98915.70;1768501;81;21006;-82
2021/09/21 12:10:44;;;;;;;;;;;;;;;14.57;57.24;98917.03;1767244;80;20196;-82
2021/09/21 12:13:17;;;;;;;;;;;;;;;14.66;58.39;98919.97;1768139;81;20133;-82
2021/09/21 12:15:46;;;;;;;;;;;;;;;14.69;56.29;98913.94;1750914;81;20208;-82
2021/09/21 12:18:13;;;;;;;;;;;;;;;14.82;56.66;98909.76;1768126;81;20133;-82
2021/09/21 12:20:41;;;;;;;;;;;;;;;15.00;57.55;98907.68;1750532;81;20934;-82
2021/09/21 12:23:09;;;;;;;;;;;;;;;14.98;55.01;98896.80;1771625;81;20149;-82
2021/09/21 12:25:37;;;;;;;;;;;;;;;15.00;56.65;98889.94;1755685;81;20129;-81
2021/09/21 12:28:06;;;;;;;;;;;;;;;15.12;57.50;98889.55;1755827;81;20162;-82
2021/09/21 12:30:36;;;;;;;;;;;;;;;15.23;58.01;98891.91;1773060;80;20117;-82
2021/09/21 12:33:04;;;;;;;;;;;;;;;15.30;56.57;98883.93;1773120;80;20853;-82
2021/09/21 12:35:38;;;;;;;;;;;;;;;15.12;53.37;98891.72;1772982;80;20157;-82
2021/09/21 12:38:08;;;;;;;;;;;;;;;15.09;54.94;98893.67;1773136;81;20164;-82
2021/09/21 12:40:35;;;;;;;;;;;;;;;15.26;56.45;98896.52;1773419;80;20212;-82
2021/09/21 12:43:03;;;;;;;;;;;;;;;15.32;55.97;98900.83;1773158;80;20408;-82
2021/09/21 12:45:31;;;;;;;;;;;;;;;15.31;55.90;98895.92;1773025;80;21005;-82
2021/09/21 12:48:00;;;;;;;;;;;;;;;15.35;56.73;98893.41;1773096;80;20155;-82
2021/09/21 12:50:27;;;;;;;;;;;;;;;15.41;56.47;98893.08;1773314;80;20150;-82
2021/09/21 12:52:56;;;;;;;;;;;;;;;15.49;56.70;98893.80;1755878;81;20125;-82
2021/09/21 12:55:30;;;;;;;;;;;;;;;15.44;54.81;98892.48;1773340;81;20169;-82
2021/09/21 12:57:57;;;;;;;;;;;;;;;15.26;56.49;98892.42;1773529;81;20947;-82
2021/09/21 13:00:24;;;;;;;;;;;;;;;15.16;57.31;98890.06;1755587;81;20393;-82
2021/09/21 13:02:51;;;;;;;;;;;;;;;15.11;55.80;98888.73;1773190;81;20153;-82
2021/09/21 13:05:18;;;;;;;;;;;;;;;14.91;56.30;98890.30;1773055;81;20187;-82
2021/09/21 13:07:45;;;;;;;;;;;;;;;14.82;55.65;98883.84;1773142;81;20151;-82